Time;durP1;ratioP1;P1;durP2;ratioP2;P2;SDS_P1;SDS_P2;PMS_P1;PMS_P2;Temp;Humidity;BMP_temperature;BMP_pressure;BME280_temperature;BME280_humidity;BME280_pressure;Samples;Min_cycle;Max_cycle;Signal;HPM_P1;HPM_P2
2021/05/18 00:00:59;;;;;;;;;;;;;;;17.04;52.48;100247.34;5016537;27;98887;-77
2021/05/18 00:03:25;;;;;;;;;;;;;;;16.89;52.86;100248.41;5019606;27;98787;-75
2021/05/18 00:05:53;;;;;;;;;;;;;;;16.83;53.36;100247.97;5033955;28;97315;-77
2021/05/18 00:08:21;;;;;;;;;;;;;;;16.91;53.33;100254.50;5034056;27;96932;-76
2021/05/18 00:13:32;;;;;;;;;;;;;;;17.01;52.73;100255.53;5034088;27;97084;-76
2021/05/18 00:15:58;;;;;;;;;;;;;;;16.96;52.55;100259.50;5033532;27;96924;-76
2021/05/18 00:18:26;;;;;;;;;;;;;;;16.92;52.48;100256.19;5035825;27;96973;-76
2021/05/18 00:20:52;;;;;;;;;;;;;;;16.90;52.57;100257.25;5035672;27;97167;-76
2021/05/18 00:23:18;;;;;;;;;;;;;;;16.90;52.21;100258.13;5028496;27;98761;-76
2021/05/18 00:25:44;;;;;;;;;;;;;;;17.01;51.99;100260.88;5034898;27;97001;-76
2021/05/18 00:28:10;;;;;;;;;;;;;;;17.06;51.65;100260.59;5036027;27;96836;-76
2021/05/18 00:30:36;;;;;;;;;;;;;;;16.91;52.02;100258.97;5031115;27;98891;-76
2021/05/18 00:33:04;;;;;;;;;;;;;;;16.83;51.80;100259.50;5035665;27;99267;-76
2021/05/18 00:35:31;;;;;;;;;;;;;;;16.37;52.78;100259.06;5033862;27;97775;-76
2021/05/18 00:37:57;;;;;;;;;;;;;;;16.81;51.95;100256.06;5033136;27;98483;-76
2021/05/18 00:40:22;;;;;;;;;;;;;;;16.61;52.35;100259.25;5034162;27;98885;-75
2021/05/18 00:42:49;;;;;;;;;;;;;;;16.66;52.01;100258.00;5036554;27;97132;-75
2021/05/18 00:45:16;;;;;;;;;;;;;;;16.69;52.43;100260.44;5034917;27;97347;-76
2021/05/18 00:47:42;;;;;;;;;;;;;;;16.66;52.09;100258.00;5036316;27;97198;-75
2021/05/18 00:50:08;;;;;;;;;;;;;;;16.71;52.05;100257.69;5035838;27;99027;-75
2021/05/18 00:52:35;;;;;;;;;;;;;;;16.88;51.29;100259.16;5034572;27;99051;-76
2021/05/18 00:55:05;;;;;;;;;;;;;;;16.74;51.68;100260.13;5035029;27;97164;-76
2021/05/18 01:00:15;;;;;;;;;;;;;;;16.64;51.83;100269.72;5024784;28;97145;-76
2021/05/18 01:02:41;;;;;;;;;;;;;;;16.52;52.01;100266.03;5037462;27;99402;-76
2021/05/18 01:05:10;;;;;;;;;;;;;;;16.51;52.44;100263.47;5036221;27;96727;-75
2021/05/18 01:07:38;;;;;;;;;;;;;;;16.64;51.78;100259.06;5036071;28;97117;-76
2021/05/18 01:10:04;;;;;;;;;;;;;;;16.46;52.63;100265.59;5035134;27;99027;-77
2021/05/18 01:12:30;;;;;;;;;;;;;;;16.49;52.58;100268.03;5036126;27;98730;-75
2021/05/18 01:14:56;;;;;;;;;;;;;;;16.60;52.16;100274.41;5034754;27;97427;-75
2021/05/18 01:17:22;;;;;;;;;;;;;;;16.61;51.60;100285.91;5035036;27;96962;-76
2021/05/18 01:19:47;;;;;;;;;;;;;;;16.58;51.67;100286.97;5035999;27;99231;-78
2021/05/18 01:22:14;;;;;;;;;;;;;;;16.47;52.08;100283.31;5040642;27;98712;-76
2021/05/18 01:24:40;;;;;;;;;;;;;;;16.29;52.37;100288.91;5056654;27;96736;-76
2021/05/18 01:27:06;;;;;;;;;;;;;;;16.45;52.36;100287.88;5058908;28;96323;-76
2021/05/18 01:29:32;;;;;;;;;;;;;;;16.47;52.08;100294.00;5054377;28;96918;-76
2021/05/18 01:31:59;;;;;;;;;;;;;;;16.53;51.86;100299.75;5053041;27;97745;-77
2021/05/18 01:34:24;;;;;;;;;;;;;;;16.60;51.37;100306.44;5043844;27;97145;-76
2021/05/18 01:36:50;;;;;;;;;;;;;;;16.35;51.93;100303.63;5035422;27;97587;-75
2021/05/18 01:39:41;;;;;;;;;;;;;;;16.40;51.50;100312.22;5034410;27;99169;-76
2021/05/18 01:44:50;;;;;;;;;;;;;;;16.37;51.95;100306.19;5033843;27;97234;-76
2021/05/18 01:47:16;;;;;;;;;;;;;;;16.26;52.00;100307.78;5035099;27;98079;-76
2021/05/18 01:49:42;;;;;;;;;;;;;;;16.33;52.27;100311.75;5033004;27;97847;-77
2021/05/18 01:52:08;;;;;;;;;;;;;;;16.37;51.98;100317.72;5034462;27;99072;-77
2021/05/18 01:54:36;;;;;;;;;;;;;;;16.19;52.53;100317.13;5032668;27;98322;-77
2021/05/18 01:57:20;;;;;;;;;;;;;;;15.93;53.21;100328.63;5038553;27;97161;-76
2021/05/18 01:59:46;;;;;;;;;;;;;;;16.24;52.70;100327.47;5047489;27;98815;-74
2021/05/18 02:02:12;;;;;;;;;;;;;;;16.23;52.35;100325.78;5036128;27;98812;-76
2021/05/18 02:04:43;;;;;;;;;;;;;;;16.24;52.46;100325.69;5030639;27;97797;-75
2021/05/18 02:07:10;;;;;;;;;;;;;;;16.00;53.25;100329.94;5035444;27;97218;-76
2021/05/18 02:09:36;;;;;;;;;;;;;;;16.16;53.09;100341.31;5032248;27;98850;-76
2021/05/18 02:12:03;;;;;;;;;;;;;;;16.39;52.60;100339.81;5034496;27;98890;-76
2021/05/18 02:14:30;;;;;;;;;;;;;;;16.54;52.03;100345.97;5034103;27;97792;-76
2021/05/18 02:17:01;;;;;;;;;;;;;;;16.34;52.09;100349.94;5034427;27;97268;-75
2021/05/18 02:19:37;;;;;;;;;;;;;;;16.47;51.93;100347.31;5040741;27;101827;-76
2021/05/18 02:25:02;;;;;;;;;;;;;;;16.45;51.95;100342.09;5006139;28;96741;-76
2021/05/18 02:27:29;;;;;;;;;;;;;;;16.29;52.44;100355.56;5037330;27;96905;-76
2021/05/18 02:29:54;;;;;;;;;;;;;;;16.25;52.45;100364.72;5037361;27;99362;-76
2021/05/18 02:32:21;;;;;;;;;;;;;;;16.32;52.46;100350.03;5033210;27;98184;-76
2021/05/18 02:34:46;;;;;;;;;;;;;;;15.93;53.10;100356.13;5034287;27;96908;-76
2021/05/18 02:37:12;;;;;;;;;;;;;;;15.79;53.59;100365.94;5033196;27;97081;-76
2021/05/18 02:39:38;;;;;;;;;;;;;;;16.18;52.68;100359.88;5033282;27;99431;-76
2021/05/18 02:42:05;;;;;;;;;;;;;;;16.10;52.78;100360.38;5033462;27;98926;-76
2021/05/18 02:44:36;;;;;;;;;;;;;;;16.00;53.24;100361.91;5034269;27;96823;-75
2021/05/18 02:49:45;;;;;;;;;;;;;;;15.91;52.64;100359.84;5034958;27;97149;-76
2021/05/18 02:52:11;;;;;;;;;;;;;;;16.07;53.41;100365.91;5035586;27;100580;-76
2021/05/18 02:54:37;;;;;;;;;;;;;;;15.98;53.35;100373.63;5033600;27;98452;-75
2021/05/18 02:57:08;;;;;;;;;;;;;;;15.98;53.05;100377.16;5034963;27;97037;-76
2021/05/18 02:59:35;;;;;;;;;;;;;;;15.87;53.33;100376.97;5034638;27;98883;-76
2021/05/18 03:02:01;;;;;;;;;;;;;;;15.97;52.98;100369.25;5037258;27;99030;-75
2021/05/18 03:04:27;;;;;;;;;;;;;;;16.09;52.34;100371.13;5038830;27;96678;-76
2021/05/18 03:06:53;;;;;;;;;;;;;;;15.84;53.22;100380.69;5034559;27;97104;-76
2021/05/18 03:09:20;;;;;;;;;;;;;;;15.91;52.98;100376.69;5032333;27;99318;-75
2021/05/18 03:11:47;;;;;;;;;;;;;;;16.14;52.26;100388.56;5033589;27;98829;-75
2021/05/18 03:14:14;;;;;;;;;;;;;;;16.00;52.63;100393.91;5032049;27;97050;-76
2021/05/18 03:16:42;;;;;;;;;;;;;;;15.73;53.38;100392.97;5033377;27;97618;-76
2021/05/18 03:19:09;;;;;;;;;;;;;;;16.00;52.72;100395.72;5033272;27;98788;-77
2021/05/18 03:21:35;;;;;;;;;;;;;;;15.98;52.99;100398.47;5032873;27;98881;-76
2021/05/18 03:24:00;;;;;;;;;;;;;;;15.56;53.73;100398.50;5032286;27;96823;-76
2021/05/18 03:26:27;;;;;;;;;;;;;;;16.01;52.94;100392.09;5031480;27;96816;-76
2021/05/18 03:28:57;;;;;;;;;;;;;;;16.16;52.39;100401.75;5032823;27;100820;-77
2021/05/18 03:34:28;;;;;;;;;;;;;;;16.16;52.10;100399.94;5029726;27;96826;-76
2021/05/18 03:36:55;;;;;;;;;;;;;;;16.09;52.48;100406.63;5032834;28;97195;-76
2021/05/18 03:39:20;;;;;;;;;;;;;;;16.23;52.09;100401.28;5031715;27;97865;-76
2021/05/18 03:41:54;;;;;;;;;;;;;;;16.39;51.49;100406.47;5032311;27;99236;-76
2021/05/18 03:44:25;;;;;;;;;;;;;;;16.22;51.87;100418.22;5030960;27;97693;-76
2021/05/18 03:52:25;;;;;;;;;;;;;;;16.53;51.35;100434.94;5026149;28;97075;-76
2021/05/18 03:55:01;;;;;;;;;;;;;;;16.34;51.67;100428.09;5031422;27;98028;-75
2021/05/18 04:03:02;;;;;;;;;;;;;;;16.74;51.06;100430.88;5031764;27;97077;-75
2021/05/18 04:11:50;;;;;;;;;;;;;;;16.58;51.50;100435.47;5044821;27;97513;-76
2021/05/18 04:17:01;;;;;;;;;;;;;;;16.67;51.48;100443.75;5027449;27;96931;-77
2021/05/18 04:19:31;;;;;;;;;;;;;;;17.02;50.70;100444.09;5046981;27;97509;-76
2021/05/18 04:22:11;;;;;;;;;;;;;;;16.76;51.49;100439.63;5031427;27;98956;-76
2021/05/18 04:25:05;;;;;;;;;;;;;;;16.72;51.68;100436.31;5032236;27;98873;-76
2021/05/18 04:38:53;;;;;;;;;;;;;;;16.85;52.03;100457.72;5027099;27;98856;-77
2021/05/18 04:49:53;;;;;;;;;;;;;;;16.55;53.15;100471.19;5030343;27;96804;-76
2021/05/18 04:52:21;;;;;;;;;;;;;;;16.86;52.45;100470.13;5029096;27;97116;-77
2021/05/18 05:00:19;;;;;;;;;;;;;;;16.31;54.33;100476.28;5035456;28;97208;-76
2021/05/18 05:03:01;;;;;;;;;;;;;;;16.62;53.55;100477.03;5033214;27;97714;-76
2021/05/18 05:08:13;;;;;;;;;;;;;;;16.80;53.16;100488.34;5031986;27;97528;-76
2021/05/18 05:16:08;;;;;;;;;;;;;;;16.50;54.44;100486.66;5030034;27;97577;-75
2021/05/18 05:18:34;;;;;;;;;;;;;;;16.38;54.66;100492.75;5034892;27;99129;-77
2021/05/18 05:21:00;;;;;;;;;;;;;;;16.33;54.88;100495.72;5030382;27;96801;-76
2021/05/18 05:23:26;;;;;;;;;;;;;;;16.26;55.11;100494.41;5028891;27;97354;-76
2021/05/18 05:25:52;;;;;;;;;;;;;;;16.79;53.64;100505.28;5029810;27;96900;-75
2021/05/18 05:28:18;;;;;;;;;;;;;;;17.02;53.00;100512.66;5028777;28;99305;-76
2021/05/18 05:30:44;;;;;;;;;;;;;;;16.43;54.52;100516.47;5035703;27;96761;-75
2021/05/18 05:33:10;;;;;;;;;;;;;;;16.73;53.99;100511.91;5035844;27;96818;-76
2021/05/18 05:35:36;;;;;;;;;;;;;;;17.14;53.08;100509.16;5035545;27;99360;-76
2021/05/18 05:38:02;;;;;;;;;;;;;;;17.46;52.21;100513.19;5038380;28;98819;-75
2021/05/18 05:40:28;;;;;;;;;;;;;;;17.46;52.09;100515.00;5045659;27;96861;-76
2021/05/18 05:42:54;;;;;;;;;;;;;;;17.58;51.55;100518.69;5042730;27;97038;-76
2021/05/18 05:45:20;;;;;;;;;;;;;;;17.39;52.35;100525.25;5037454;27;99788;-76
2021/05/18 05:47:46;;;;;;;;;;;;;;;17.58;51.69;100530.25;5040141;27;98734;-75
2021/05/18 05:50:12;;;;;;;;;;;;;;;17.60;51.74;100532.78;5038567;27;98073;-76
2021/05/18 05:52:38;;;;;;;;;;;;;;;17.36;52.37;100535.31;5039260;27;97974;-76
2021/05/18 05:55:04;;;;;;;;;;;;;;;17.93;51.23;100531.38;5038967;27;98957;-75
2021/05/18 05:57:30;;;;;;;;;;;;;;;17.90;51.36;100526.25;5040343;28;98884;-75
2021/05/18 05:59:57;;;;;;;;;;;;;;;17.79;51.18;100531.44;5043205;27;97204;-76
2021/05/18 06:02:22;;;;;;;;;;;;;;;18.06;50.75;100541.19;5047437;27;97566;-76
2021/05/18 06:04:48;;;;;;;;;;;;;;;18.28;50.31;100536.06;5038894;27;99348;-76
2021/05/18 06:07:14;;;;;;;;;;;;;;;17.95;50.66;100533.94;5040825;27;98811;-75
2021/05/18 06:09:40;;;;;;;;;;;;;;;18.87;48.75;100539.84;5030094;27;97321;-75
2021/05/18 06:12:17;;;;;;;;;;;;;;;18.86;48.90;100539.94;5035693;27;97270;-76
2021/05/18 06:14:48;;;;;;;;;;;;;;;19.11;48.19;100539.84;5040899;27;99052;-76
2021/05/18 06:42:18;;;;;;;;;;;;;;;17.83;51.42;100581.09;4987971;28;97505;-76
2021/05/18 06:47:31;;;;;;;;;;;;;;;17.72;51.90;100586.28;5013578;27;97255;-76
2021/05/18 06:50:08;;;;;;;;;;;;;;;17.55;52.23;100591.88;5029525;27;99157;-75
2021/05/18 06:52:34;;;;;;;;;;;;;;;17.37;52.88;100601.13;5027889;28;96842;-76
2021/05/18 06:55:00;;;;;;;;;;;;;;;17.53;52.21;100599.13;5034522;27;97045;-76
2021/05/18 06:57:28;;;;;;;;;;;;;;;17.92;51.36;100600.97;5024556;27;99012;-76
2021/05/18 07:00:09;;;;;;;;;;;;;;;17.74;50.91;100605.75;5031398;28;100280;-78
2021/05/18 07:02:37;;;;;;;;;;;;;;;18.04;50.58;100597.47;5032983;28;97243;-77
2021/05/18 07:05:04;;;;;;;;;;;;;;;18.06;50.73;100600.03;5025907;28;96955;-76
2021/05/18 07:07:34;;;;;;;;;;;;;;;18.38;49.65;100611.19;5032619;27;98274;-75
2021/05/18 07:09:59;;;;;;;;;;;;;;;18.07;50.26;100612.44;5033578;27;100737;-76
2021/05/18 07:12:25;;;;;;;;;;;;;;;18.28;49.71;100602.94;5033365;27;96978;-76
2021/05/18 07:14:51;;;;;;;;;;;;;;;18.29;49.59;100607.31;5033882;27;97210;-77
2021/05/18 07:17:17;;;;;;;;;;;;;;;18.49;49.18;100616.63;5035122;27;99163;-77
2021/05/18 07:19:43;;;;;;;;;;;;;;;18.73;48.65;100614.91;5035760;27;98720;-77
2021/05/18 07:22:10;;;;;;;;;;;;;;;18.56;48.70;100617.94;5035564;27;96923;-77
2021/05/18 07:24:36;;;;;;;;;;;;;;;18.65;48.77;100612.78;5033134;27;98754;-77
2021/05/18 07:27:03;;;;;;;;;;;;;;;18.32;49.33;100620.47;5025623;27;98091;-78
2021/05/18 07:29:29;;;;;;;;;;;;;;;18.00;49.86;100621.84;5032805;27;98976;-77
2021/05/18 07:31:55;;;;;;;;;;;;;;;18.32;49.51;100625.81;5030660;28;98805;-78
2021/05/18 07:34:21;;;;;;;;;;;;;;;18.39;49.30;100623.56;5034231;27;97280;-78
2021/05/18 07:36:47;;;;;;;;;;;;;;;17.97;50.38;100630.94;5032605;27;97943;-77
2021/05/18 07:39:14;;;;;;;;;;;;;;;18.20;50.12;100626.69;5030715;28;98969;-77
2021/05/18 07:41:40;;;;;;;;;;;;;;;18.42;49.61;100634.06;5033434;28;96869;-79
2021/05/18 07:44:06;;;;;;;;;;;;;;;18.39;49.84;100632.47;5033105;28;98874;-78
2021/05/18 07:46:32;;;;;;;;;;;;;;;18.01;50.87;100636.91;5031600;27;99202;-78
2021/05/18 07:49:11;;;;;;;;;;;;;;;18.24;50.62;100639.75;5028247;27;97754;-77
2021/05/18 07:51:52;;;;;;;;;;;;;;;17.92;51.17;100641.91;5025245;27;96861;-77
2021/05/18 07:59:54;;;;;;;;;;;;;;;18.17;50.78;100649.16;5027744;27;96964;-75
2021/05/18 08:05:17;;;;;;;;;;;;;;;18.14;50.31;100651.16;5020934;27;99287;-78
2021/05/18 08:05:21;;;;;;;;;;;;;;;17.40;51.89;100648.97;5027731;27;98761;-77
2021/05/18 08:07:48;;;;;;;;;;;;;;;17.78;50.55;100658.06;5025888;27;101680;-78
2021/05/18 08:10:17;;;;;;;;;;;;;;;17.58;50.20;100663.81;5030629;27;99248;-77
2021/05/18 08:12:43;;;;;;;;;;;;;;;17.87;49.27;100662.75;5043544;27;96971;-76
2021/05/18 08:15:32;;;;;;;;;;;;;;;18.04;48.56;100664.31;5029921;27;98169;-76
2021/05/18 08:18:07;;;;;;;;;;;;;;;18.16;48.15;100666.16;5027349;27;99147;-75
2021/05/18 09:44:47;;;;;;;;;;;;;;;20.66;43.30;100721.13;5037084;28;96843;-77
2021/05/18 09:50:23;;;;;;;;;;;;;;;19.57;45.15;100721.34;5028367;27;98640;-76
2021/05/18 10:36:27;;;;;;;;;;;;;;;19.36;44.76;100739.84;5031275;27;97187;-76
2021/05/18 10:39:13;;;;;;;;;;;;;;;19.04;45.48;100739.44;5032572;27;97000;-77
2021/05/18 10:41:39;;;;;;;;;;;;;;;18.60;46.73;100739.84;5033427;28;98426;-76
2021/05/18 10:44:06;;;;;;;;;;;;;;;19.20;45.20;100734.72;5034717;28;98906;-77
2021/05/18 10:46:46;;;;;;;;;;;;;;;18.97;45.13;100743.53;5030911;27;98693;-76
2021/05/18 10:49:13;;;;;;;;;;;;;;;19.03;45.04;100741.25;5032786;28;96781;-78
2021/05/18 10:51:43;;;;;;;;;;;;;;;19.15;44.32;100736.00;5033993;27;99342;-77
2021/05/18 10:54:19;;;;;;;;;;;;;;;19.07;44.43;100749.94;5034958;27;99728;-76
2021/05/18 10:56:59;;;;;;;;;;;;;;;18.41;46.30;100745.59;5033874;27;96760;-77
2021/05/18 10:59:25;;;;;;;;;;;;;;;19.58;43.84;100747.19;5025048;27;97529;-77
2021/05/18 11:01:56;;;;;;;;;;;;;;;19.50;43.41;100737.88;5033793;27;98912;-79
2021/05/18 11:04:22;;;;;;;;;;;;;;;20.36;41.69;100747.63;5033873;28;98934;-77
2021/05/18 11:06:52;;;;;;;;;;;;;;;19.45;43.44;100747.19;5031373;28;96802;-78
2021/05/18 11:09:17;;;;;;;;;;;;;;;20.42;41.79;100752.50;5035250;27;97227;-79
2021/05/18 11:11:44;;;;;;;;;;;;;;;20.16;41.90;100758.00;5034147;27;99189;-77
2021/05/18 11:14:10;;;;;;;;;;;;;;;21.01;40.06;100754.09;5034361;27;98779;-77
2021/05/18 11:16:36;;;;;;;;;;;;;;;21.64;37.90;100749.97;5035699;27;96762;-77
2021/05/18 11:19:08;;;;;;;;;;;;;;;21.66;37.96;100747.16;5035137;27;96802;-77
2021/05/18 11:21:39;;;;;;;;;;;;;;;21.43;38.24;100751.72;5035865;27;97918;-78
2021/05/18 11:24:08;;;;;;;;;;;;;;;20.45;40.16;100750.47;5035088;27;99764;-78
2021/05/18 11:26:34;;;;;;;;;;;;;;;20.42;40.99;100752.50;5033031;27;97339;-77
2021/05/18 11:29:00;;;;;;;;;;;;;;;21.05;39.04;100742.16;5033587;27;96864;-78
2021/05/18 11:31:29;;;;;;;;;;;;;;;20.78;40.04;100735.41;5033649;27;97610;-77
2021/05/18 11:33:57;;;;;;;;;;;;;;;21.20;39.08;100739.28;5033726;28;97803;-78
2021/05/18 11:36:24;;;;;;;;;;;;;;;21.12;38.95;100745.22;5033655;27;99660;-76
2021/05/18 11:38:51;;;;;;;;;;;;;;;21.24;38.27;100732.66;5033470;28;97787;-77
2021/05/18 11:41:19;;;;;;;;;;;;;;;21.31;38.14;100744.63;5033096;28;99197;-77
2021/05/18 11:43:48;;;;;;;;;;;;;;;21.73;37.97;100733.06;5034062;27;98634;-78
2021/05/18 11:46:13;;;;;;;;;;;;;;;21.66;38.46;100737.25;5030874;28;96846;-78
2021/05/18 11:48:41;;;;;;;;;;;;;;;20.78;39.88;100730.91;5032937;27;96832;-78
2021/05/18 11:51:09;;;;;;;;;;;;;;;20.90;40.15;100738.00;5026421;28;99117;-77
2021/05/18 11:53:36;;;;;;;;;;;;;;;20.93;40.42;100748.50;5033833;28;99030;-79
2021/05/18 11:56:15;;;;;;;;;;;;;;;21.03;39.69;100737.88;5028897;28;97440;-77
2021/05/18 11:58:41;;;;;;;;;;;;;;;21.31;39.27;100728.50;5024036;28;98646;-76
2021/05/18 12:01:07;;;;;;;;;;;;;;;22.12;37.15;100728.94;5032995;28;99067;-77
2021/05/18 12:03:34;;;;;;;;;;;;;;;22.51;36.59;100734.66;5033349;27;98020;-77
2021/05/18 12:06:03;;;;;;;;;;;;;;;22.27;36.90;100733.03;5035694;27;96865;-77
2021/05/18 12:08:30;;;;;;;;;;;;;;;22.00;36.93;100729.13;5037502;27;97113;-76
2021/05/18 12:11:09;;;;;;;;;;;;;;;21.91;37.36;100727.19;5036846;27;97737;-77
2021/05/18 12:13:35;;;;;;;;;;;;;;;21.35;38.70;100733.50;5036558;27;99134;-76
2021/05/18 12:16:02;;;;;;;;;;;;;;;21.77;37.60;100726.47;5037324;27;97263;-77
2021/05/18 12:18:29;;;;;;;;;;;;;;;20.83;38.10;100736.75;5031597;27;96829;-76
2021/05/18 12:21:00;;;;;;;;;;;;;;;20.60;38.84;100735.03;5037514;28;99211;-78
2021/05/18 12:23:26;;;;;;;;;;;;;;;21.74;37.23;100731.25;5036931;28;98882;-77
2021/05/18 12:25:52;;;;;;;;;;;;;;;21.36;37.22;100739.75;5035169;28;97357;-76
2021/05/18 12:28:19;;;;;;;;;;;;;;;22.08;36.19;100737.41;5035942;27;97069;-77
2021/05/18 12:30:45;;;;;;;;;;;;;;;21.87;36.66;100738.19;5030345;27;100940;-76
2021/05/18 12:33:11;;;;;;;;;;;;;;;21.25;37.83;100734.38;5034241;27;98994;-76
2021/05/18 12:35:37;;;;;;;;;;;;;;;20.85;37.99;100740.19;5035519;27;97628;-77
2021/05/18 12:38:15;;;;;;;;;;;;;;;20.93;37.96;100736.91;5031751;27;97644;-77
2021/05/18 12:40:43;;;;;;;;;;;;;;;21.25;37.59;100737.06;5037131;27;100989;-77
2021/05/18 12:43:10;;;;;;;;;;;;;;;21.60;35.90;100729.69;5044802;27;97967;-77
2021/05/18 12:45:37;;;;;;;;;;;;;;;21.16;36.70;100737.78;5043400;27;97344;-77
2021/05/18 12:48:04;;;;;;;;;;;;;;;21.55;36.19;100731.03;5037059;27;97073;-77
2021/05/18 12:50:40;;;;;;;;;;;;;;;21.78;35.77;100738.94;5049151;27;98143;-78
2021/05/18 12:53:06;;;;;;;;;;;;;;;21.09;37.05;100743.63;5038779;28;97008;-77
2021/05/18 12:55:33;;;;;;;;;;;;;;;21.35;36.50;100744.25;5039317;27;97819;-76
2021/05/18 12:58:00;;;;;;;;;;;;;;;21.39;36.93;100739.50;5037818;27;97466;-78
2021/05/18 13:00:28;;;;;;;;;;;;;;;20.96;37.17;100748.25;5034586;28;99425;-77
2021/05/18 13:02:54;;;;;;;;;;;;;;;21.16;36.90;100743.16;5033112;27;99288;-77
2021/05/18 13:05:21;;;;;;;;;;;;;;;21.26;37.22;100744.16;5031677;27;97689;-77
2021/05/18 13:08:04;;;;;;;;;;;;;;;21.59;36.40;100745.97;5033305;27;98652;-78
2021/05/18 13:10:38;;;;;;;;;;;;;;;21.81;35.23;100740.50;5027154;27;99507;-77
2021/05/18 13:13:05;;;;;;;;;;;;;;;21.93;34.77;100747.56;5025885;27;98811;-77
2021/05/18 13:15:31;;;;;;;;;;;;;;;21.82;35.10;100748.47;5033135;27;96880;-76
2021/05/18 13:17:58;;;;;;;;;;;;;;;21.73;34.66;100740.28;5028118;27;96942;-77
2021/05/18 13:20:35;;;;;;;;;;;;;;;21.95;34.94;100751.00;5031731;28;98896;-78
2021/05/18 13:23:02;;;;;;;;;;;;;;;22.12;34.25;100739.72;5033189;27;99443;-78
2021/05/18 13:28:18;;;;;;;;;;;;;;;22.82;33.29;100741.84;5033986;27;96820;-81
2021/05/18 13:30:44;;;;;;;;;;;;;;;22.80;32.84;100735.72;5031390;27;97563;-77
2021/05/18 13:33:10;;;;;;;;;;;;;;;22.60;33.46;100736.53;5031655;27;101334;-76
2021/05/18 13:35:35;;;;;;;;;;;;;;;22.16;34.77;100740.31;5029579;27;97250;-76
2021/05/18 13:38:02;;;;;;;;;;;;;;;22.01;35.58;100739.75;5037337;28;98186;-79
2021/05/18 13:40:31;;;;;;;;;;;;;;;20.70;37.33;100741.38;5028546;28;101368;-77
2021/05/18 13:42:57;;;;;;;;;;;;;;;20.12;39.74;100744.94;5030130;27;98085;-77
2021/05/18 13:45:25;;;;;;;;;;;;;;;20.26;39.26;100734.88;5034748;27;98162;-76
2021/05/18 13:47:59;;;;;;;;;;;;;;;20.58;38.55;100748.56;5030582;27;97424;-77
2021/05/18 13:50:25;;;;;;;;;;;;;;;19.63;39.69;100747.69;5033256;27;98858;-77
2021/05/18 13:52:51;;;;;;;;;;;;;;;21.03;37.66;100744.09;5029389;27;99507;-75
2021/05/18 13:55:24;;;;;;;;;;;;;;;21.45;36.77;100742.56;5030510;27;99109;-76
2021/05/18 13:57:50;;;;;;;;;;;;;;;22.82;33.99;100732.91;4968082;27;1614537;-76
2021/05/18 14:00:18;;;;;;;;;;;;;;;24.21;30.37;100733.81;5033740;27;99138;-76
2021/05/18 14:02:47;;;;;;;;;;;;;;;25.02;27.92;100732.41;5032153;27;102062;-76
2021/05/18 14:05:19;;;;;;;;;;;;;;;25.89;27.14;100728.41;5034519;28;96979;-78
2021/05/18 14:10:46;;;;;;;;;;;;;;;27.72;24.46;100725.50;5024827;27;98010;-76
2021/05/18 14:13:12;;;;;;;;;;;;;;;26.94;23.98;100734.78;5030622;27;97856;-76
2021/05/18 14:15:39;;;;;;;;;;;;;;;27.62;23.57;100723.97;5030925;27;96766;-77
2021/05/18 14:18:06;;;;;;;;;;;;;;;27.28;24.35;100730.25;5030852;28;97042;-77
2021/05/18 14:20:32;;;;;;;;;;;;;;;26.26;26.10;100720.16;5029458;27;98207;-76
2021/05/18 14:22:58;;;;;;;;;;;;;;;26.58;25.42;100724.00;5025363;27;98800;-76
2021/05/18 14:25:23;;;;;;;;;;;;;;;25.52;26.71;100734.75;5032330;27;98701;-77
2021/05/18 14:27:49;;;;;;;;;;;;;;;25.62;26.76;100727.44;5032405;27;97420;-76
2021/05/18 14:30:16;;;;;;;;;;;;;;;24.76;28.01;100728.59;5034448;27;97969;-76
2021/05/18 14:32:42;;;;;;;;;;;;;;;24.79;28.12;100733.72;5032800;27;98722;-76
2021/05/18 14:35:10;;;;;;;;;;;;;;;23.92;29.28;100727.47;5029361;27;98903;-77
2021/05/18 14:37:36;;;;;;;;;;;;;;;23.65;30.06;100728.16;5032136;28;97466;-77
2021/05/18 14:40:06;;;;;;;;;;;;;;;22.93;31.53;100730.09;5031741;27;98659;-78
2021/05/18 14:42:51;;;;;;;;;;;;;;;23.23;31.44;100730.13;5029204;27;99366;-77
2021/05/18 14:45:20;;;;;;;;;;;;;;;22.44;32.20;100733.47;5030306;27;97779;-79
2021/05/18 14:47:47;;;;;;;;;;;;;;;22.49;32.00;100724.00;5033403;27;98322;-77
2021/05/18 14:55:44;;;;;;;;;;;;;;;22.92;30.20;100725.69;5025531;28;97660;-77
2021/05/18 14:58:10;;;;;;;;;;;;;;;22.69;30.96;100735.75;5033245;27;97512;-75
2021/05/18 15:00:38;;;;;;;;;;;;;;;23.08;30.15;100730.63;5030366;27;99334;-78
2021/05/18 15:03:04;;;;;;;;;;;;;;;23.61;29.19;100737.53;5030311;28;99273;-77
2021/05/18 15:05:31;;;;;;;;;;;;;;;22.91;30.01;100735.63;5029643;27;96884;-75
2021/05/18 15:07:57;;;;;;;;;;;;;;;22.64;30.26;100728.06;5030757;28;97815;-76
2021/05/18 15:10:23;;;;;;;;;;;;;;;22.36;31.21;100734.13;5030052;27;98870;-75
2021/05/18 15:12:48;;;;;;;;;;;;;;;22.19;31.60;100730.13;5029157;28;98905;-75
2021/05/18 15:15:15;;;;;;;;;;;;;;;21.61;32.59;100741.28;5034886;28;97572;-78
2021/05/18 15:17:41;;;;;;;;;;;;;;;21.64;33.05;100733.00;5033070;27;97510;-76
2021/05/18 15:20:07;;;;;;;;;;;;;;;21.91;33.03;100740.63;5033434;28;98948;-77
2021/05/18 15:22:35;;;;;;;;;;;;;;;21.24;34.58;100740.72;5033223;27;98859;-76
2021/05/18 15:25:01;;;;;;;;;;;;;;;21.52;34.71;100734.00;5028538;28;97122;-77
2021/05/18 15:27:27;;;;;;;;;;;;;;;20.95;35.19;100741.16;5033127;28;97395;-75
2021/05/18 15:29:52;;;;;;;;;;;;;;;21.05;35.37;100744.84;5033541;28;98871;-76
2021/05/18 15:32:18;;;;;;;;;;;;;;;21.08;35.71;100752.66;5030640;27;102242;-76
2021/05/18 15:34:44;;;;;;;;;;;;;;;19.83;36.86;100736.38;5031223;28;96958;-75
2021/05/18 15:37:10;;;;;;;;;;;;;;;20.04;36.84;100742.81;5030142;27;97710;-75
2021/05/18 15:39:37;;;;;;;;;;;;;;;19.84;37.14;100751.50;5030992;28;99718;-76
2021/05/18 15:42:03;;;;;;;;;;;;;;;19.65;37.81;100757.34;5032194;27;98702;-77
2021/05/18 15:44:32;;;;;;;;;;;;;;;20.33;36.38;100754.09;5037152;27;96799;-75
2021/05/18 15:46:58;;;;;;;;;;;;;;;20.67;35.96;100758.59;5028685;28;97858;-76
2021/05/18 15:49:25;;;;;;;;;;;;;;;20.70;35.41;100752.13;5026717;28;99010;-76
2021/05/18 15:51:50;;;;;;;;;;;;;;;20.99;34.68;100752.53;5032148;27;98996;-75
2021/05/18 15:54:16;;;;;;;;;;;;;;;20.19;36.06;100751.56;5031565;27;97425;-77
2021/05/18 15:56:43;;;;;;;;;;;;;;;19.80;36.98;100750.03;5033543;28;96932;-76
2021/05/18 15:59:09;;;;;;;;;;;;;;;20.46;36.10;100754.88;5029840;28;98934;-75
2021/05/18 16:01:34;;;;;;;;;;;;;;;20.92;35.15;100746.78;5032604;28;98752;-77
2021/05/18 16:04:00;;;;;;;;;;;;;;;21.15;34.94;100757.53;5033460;28;96984;-75
2021/05/18 16:06:28;;;;;;;;;;;;;;;21.31;34.78;100750.00;5035242;27;97418;-76
2021/05/18 16:09:00;;;;;;;;;;;;;;;21.33;34.53;100751.56;5032573;27;100033;-76
2021/05/18 16:11:26;;;;;;;;;;;;;;;21.01;34.83;100764.84;5030381;28;97590;-76
2021/05/18 16:13:53;;;;;;;;;;;;;;;20.43;35.38;100760.47;5027915;27;97588;-76
2021/05/18 16:16:19;;;;;;;;;;;;;;;20.56;35.21;100755.00;5030541;27;97009;-77
2021/05/18 16:18:45;;;;;;;;;;;;;;;20.48;35.11;100760.94;5025689;27;98998;-77
2021/05/18 16:21:12;;;;;;;;;;;;;;;20.75;34.62;100766.03;5022422;28;98784;-75
2021/05/18 16:23:39;;;;;;;;;;;;;;;21.00;34.98;100765.81;5023895;27;97510;-76
2021/05/18 16:26:05;;;;;;;;;;;;;;;21.08;34.53;100763.41;5032915;27;96939;-78
2021/05/18 16:28:31;;;;;;;;;;;;;;;20.83;34.46;100758.25;5027991;27;99168;-76
2021/05/18 16:30:58;;;;;;;;;;;;;;;20.30;35.87;100765.88;5029322;28;99129;-76
2021/05/18 16:33:25;;;;;;;;;;;;;;;20.52;35.43;100764.28;5032361;28;98592;-76
2021/05/18 16:35:50;;;;;;;;;;;;;;;20.36;35.48;100761.03;5030967;27;97032;-77
2021/05/18 16:38:16;;;;;;;;;;;;;;;20.89;34.40;100763.13;5032818;28;98934;-77
2021/05/18 16:40:42;;;;;;;;;;;;;;;20.97;34.31;100771.44;5025547;28;98783;-76
2021/05/18 16:43:08;;;;;;;;;;;;;;;21.05;33.74;100769.03;5029045;28;97956;-77
2021/05/18 16:45:34;;;;;;;;;;;;;;;20.64;34.33;100766.00;5026855;27;97869;-76